createdAt,value
2024-02-28T00:01:11.985Z,100498.41
2024-02-28T00:03:40.008Z,100502.91
2024-02-28T00:06:07.736Z,100495.94
2024-02-28T00:08:36.781Z,100498.56
2024-02-28T00:11:04.637Z,100506.50
2024-02-28T00:13:32.100Z,100512.59
2024-02-28T00:15:59.531Z,100510.91
2024-02-28T00:18:27.409Z,100504.91
2024-02-28T00:20:55.436Z,100499.66
2024-02-28T00:23:23.002Z,100497.97
2024-02-28T00:25:50.923Z,100497.97
2024-02-28T00:28:18.512Z,100491.88
2024-02-28T00:30:46.087Z,100498.81
2024-02-28T00:33:14.093Z,100495.34
2024-02-28T00:35:43.101Z,100498.75
2024-02-28T00:38:10.774Z,100498.75
2024-02-28T00:40:39.282Z,100492.62
2024-02-28T00:43:06.907Z,100489.03
2024-02-28T00:45:34.426Z,100496.00
2024-02-28T00:48:02.340Z,100491.56
2024-02-28T00:50:29.861Z,100483.69
2024-02-28T00:52:57.316Z,100483.69
2024-02-28T00:55:25.111Z,100488.78
2024-02-28T00:57:52.659Z,100488.66
2024-02-28T01:00:20.641Z,100486.81
2024-02-28T01:02:48.451Z,100493.84
2024-02-28T01:05:16.172Z,100495.44
2024-02-28T01:07:43.857Z,100493.69
2024-02-28T01:10:11.646Z,100497.87
2024-02-28T01:12:39.276Z,100495.25
2024-02-28T01:15:07.188Z,100499.62
2024-02-28T01:17:35.014Z,100496.91
2024-02-28T01:20:02.634Z,100498.56
2024-02-28T01:22:30.248Z,100497.63
2024-02-28T01:24:58.050Z,100492.31
2024-02-28T01:27:25.613Z,100491.47
2024-02-28T01:29:54.918Z,100485.28
2024-02-28T01:32:22.672Z,100487.00
2024-02-28T01:34:50.071Z,100481.81
2024-02-28T01:37:17.527Z,100485.28
2024-02-28T01:39:45.339Z,100484.44
2024-02-28T01:42:12.974Z,100482.66
2024-02-28T01:44:45.645Z,100484.37
2024-02-28T01:47:13.494Z,100486.22
2024-02-28T01:49:41.742Z,100489.62
2024-02-28T01:52:10.515Z,100486.00
2024-02-28T01:54:38.368Z,100487.66
2024-02-28T01:57:07.037Z,100489.34
2024-02-28T01:59:35.907Z,100484.75
2024-02-28T02:02:03.545Z,100490.72
2024-02-28T02:04:31.263Z,100485.41
2024-02-28T02:07:01.056Z,100480.22
2024-02-28T02:09:28.724Z,100493.28
2024-02-28T02:11:56.516Z,100485.34
2024-02-28T02:14:24.028Z,100489.59
2024-02-28T02:16:51.521Z,100499.19
2024-02-28T02:19:21.900Z,100491.44
2024-02-28T02:21:55.300Z,100497.41
2024-02-28T02:24:23.217Z,100496.56
2024-02-28T02:26:53.420Z,100503.62
2024-02-28T02:29:21.007Z,100500.12
2024-02-28T02:31:48.825Z,100499.09
2024-02-28T02:34:16.386Z,100495.63
2024-02-28T02:36:44.012Z,100485.94
2024-02-28T02:39:11.768Z,100493.81
2024-02-28T02:41:39.339Z,100495.50
2024-02-28T02:44:06.813Z,100496.47
2024-02-28T02:46:34.576Z,100509.78
2024-02-28T02:49:02.195Z,100509.69
2024-02-28T02:51:29.638Z,100510.47
2024-02-28T02:53:57.432Z,100517.50
2024-02-28T02:56:24.944Z,100509.56
2024-02-28T02:58:52.438Z,100510.34
2024-02-28T03:01:21.426Z,100516.66
2024-02-28T03:03:49.171Z,100516.50
2024-02-28T03:06:17.579Z,100517.28
2024-02-28T03:08:45.340Z,100511.34
2024-02-28T03:11:12.848Z,100513.16
2024-02-28T03:13:40.450Z,100516.50
2024-02-28T03:16:08.320Z,100526.09
2024-02-28T03:18:35.876Z,100513.81
2024-02-28T03:21:03.378Z,100516.44
2024-02-28T03:23:31.130Z,100519.06
2024-02-28T03:25:58.541Z,100524.28
2024-02-28T03:28:26.037Z,100527.88
2024-02-28T03:30:53.862Z,100526.22
2024-02-28T03:33:21.404Z,100527.78
2024-02-28T03:35:48.940Z,100533.94
2024-02-28T03:38:16.620Z,100534.78
2024-02-28T03:44:17.099Z,100534.78
2024-02-28T03:46:44.574Z,100532.19
2024-02-28T03:49:12.083Z,100536.69
2024-02-28T03:51:42.787Z,100542.88
2024-02-28T03:54:10.563Z,100545.50
2024-02-28T03:56:38.306Z,100544.56
2024-02-28T03:59:06.001Z,100539.22
2024-02-28T04:01:33.525Z,100543.62
2024-02-28T04:04:01.469Z,100537.53
2024-02-28T04:06:29.187Z,100550.53
2024-02-28T04:08:56.665Z,100552.31
2024-02-28T04:11:25.184Z,100549.81
2024-02-28T04:13:52.653Z,100555.91
2024-02-28T04:16:20.134Z,100557.62
2024-02-28T04:18:48.004Z,100563.81
2024-02-28T04:21:15.520Z,100569.81
2024-02-28T04:23:43.097Z,100561.06
2024-02-28T04:26:10.881Z,100566.31
2024-02-28T04:28:38.302Z,100559.28
2024-02-28T04:31:08.672Z,100567.16
2024-02-28T04:33:37.275Z,100561.19
2024-02-28T04:36:05.171Z,100562.87
2024-02-28T04:38:32.702Z,100564.94
2024-02-28T04:41:00.394Z,100558.75
2024-02-28T04:43:27.894Z,100563.28
2024-02-28T04:45:55.386Z,100559.72
2024-02-28T04:48:23.177Z,100565.63
2024-02-28T04:50:50.674Z,100559.59
2024-02-28T04:53:18.123Z,100564.78
2024-02-28T04:55:46.030Z,100570.84
2024-02-28T04:58:13.511Z,100567.41
2024-02-28T05:00:41.049Z,100575.34
2024-02-28T05:03:08.902Z,100569.97
2024-02-28T05:05:36.377Z,100573.50
2024-02-28T05:08:04.082Z,100580.50
2024-02-28T05:10:32.778Z,100567.34
2024-02-28T05:13:00.580Z,100572.66
2024-02-28T05:15:28.260Z,100576.13
2024-02-28T05:17:56.477Z,100580.50
2024-02-28T05:20:23.960Z,100582.25
2024-02-28T05:22:51.439Z,100579.81
2024-02-28T05:25:19.226Z,100587.66
2024-02-28T05:27:46.809Z,100595.53
2024-02-28T05:30:14.554Z,100586.72
2024-02-28T05:32:42.621Z,100593.81
2024-02-28T05:35:12.638Z,100596.44
2024-02-28T05:37:40.116Z,100592.09
2024-02-28T05:40:08.893Z,100602.56
2024-02-28T05:42:36.314Z,100599.06
2024-02-28T05:45:06.883Z,100598.28
2024-02-28T05:47:34.794Z,100600.81
2024-02-28T05:50:02.477Z,100598.16
2024-02-28T05:52:30.018Z,100609.50
2024-02-28T05:54:57.735Z,100608.53
2024-02-28T05:57:25.328Z,100607.41
2024-02-28T05:59:52.880Z,100611.41
2024-02-28T06:02:20.597Z,100611.53
2024-02-28T06:04:48.495Z,100623.41
2024-02-28T06:07:16.149Z,100620.47
2024-02-28T06:09:43.757Z,100615.41
2024-02-28T06:12:11.758Z,100611.81
2024-02-28T06:14:39.543Z,100622.03
2024-02-28T06:17:07.125Z,100619.44
2024-02-28T06:19:34.964Z,100630.81
2024-02-28T06:22:02.411Z,100626.78
2024-02-28T06:24:29.946Z,100638.72
2024-02-28T06:26:57.826Z,100639.34
2024-02-28T06:29:25.273Z,100634.44
2024-02-28T06:31:53.047Z,100636.16
2024-02-28T06:34:20.995Z,100646.03
2024-02-28T06:36:48.700Z,100646.47
2024-02-28T06:39:16.469Z,100640.91
2024-02-28T06:41:44.481Z,100639.06
2024-02-28T06:44:12.573Z,100644.25
2024-02-28T06:46:40.072Z,100654.06
2024-02-28T06:49:07.866Z,100649.03
2024-02-28T06:51:35.421Z,100651.31
2024-02-28T06:54:02.965Z,100659.19
2024-02-28T06:56:33.610Z,100657.16
2024-02-28T06:59:01.132Z,100661.69
2024-02-28T07:01:28.943Z,100662.81
2024-02-28T07:03:56.929Z,100666.94
2024-02-28T07:06:24.422Z,100666.72
2024-02-28T07:08:51.919Z,100667.09
2024-02-28T07:11:19.764Z,100673.00
2024-02-28T07:13:47.297Z,100671.22
2024-02-28T07:16:14.815Z,100678.00
2024-02-28T07:18:42.626Z,100679.09
2024-02-28T07:21:10.272Z,100687.97
2024-02-28T07:23:41.992Z,100684.19
2024-02-28T07:26:16.570Z,100680.47
2024-02-28T07:28:53.295Z,100681.31
2024-02-28T07:31:21.117Z,100675.75
2024-02-28T07:33:48.601Z,100685.16
2024-02-28T07:36:16.192Z,100690.00
2024-02-28T07:38:44.081Z,100684.50
2024-02-28T07:41:11.718Z,100687.13
2024-02-28T07:43:43.274Z,100690.63
2024-02-28T07:46:12.257Z,100698.66
2024-02-28T07:48:40.342Z,100696.75
2024-02-28T07:51:09.232Z,100705.41
2024-02-28T07:53:37.626Z,100707.81
2024-02-28T07:56:05.246Z,100708.50
2024-02-28T07:58:32.755Z,100705.28
2024-02-28T08:01:00.594Z,100704.78
2024-02-28T08:03:28.516Z,100702.97
2024-02-28T08:05:56.000Z,100702.13
2024-02-28T08:08:23.459Z,100708.81
2024-02-28T08:10:52.969Z,100702.84
2024-02-28T08:13:20.533Z,100702.41
2024-02-28T08:15:48.083Z,100703.59
2024-02-28T08:18:15.798Z,100696.66
2024-02-28T08:20:43.353Z,100700.47
2024-02-28T08:23:10.946Z,100704.28
2024-02-28T08:25:39.073Z,100704.19
2024-02-28T08:28:07.411Z,100691.00
2024-02-28T08:30:35.331Z,100703.09
2024-02-28T08:33:03.293Z,100699.25
2024-02-28T08:35:30.858Z,100703.88
2024-02-28T08:37:58.426Z,100699.69
2024-02-28T08:40:26.190Z,100707.50
2024-02-28T08:42:55.493Z,100707.16
2024-02-28T08:45:23.870Z,100707.28
2024-02-28T08:47:51.662Z,100705.88
2024-02-28T08:50:19.704Z,100706.97
2024-02-28T08:52:47.387Z,100699.13
2024-02-28T08:55:19.658Z,100700.69
2024-02-28T08:57:47.234Z,100696.34
2024-02-28T09:00:16.594Z,100702.47
2024-02-28T09:02:44.459Z,100701.81
2024-02-28T09:05:12.050Z,100699.13
2024-02-28T09:07:39.773Z,100698.84
2024-02-28T09:10:07.985Z,100697.44
2024-02-28T09:12:36.806Z,100697.47
2024-02-28T09:15:05.306Z,100697.38
2024-02-28T09:17:32.834Z,100696.34
2024-02-28T09:20:02.473Z,100699.44
2024-02-28T09:22:30.710Z,100698.44
2024-02-28T09:24:58.241Z,100698.13
2024-02-28T09:27:27.063Z,100697.41
2024-02-28T09:29:54.836Z,100698.72
2024-02-28T09:32:22.375Z,100701.28
2024-02-28T09:34:49.856Z,100710.94
2024-02-28T09:37:18.223Z,100719.22
2024-02-28T09:39:45.909Z,100711.66
2024-02-28T09:42:14.270Z,100709.34
2024-02-28T09:44:43.993Z,100718.09
2024-02-28T09:47:12.652Z,100722.13
2024-02-28T09:49:42.968Z,100721.44
2024-02-28T09:52:10.902Z,100722.84
2024-02-28T09:54:38.581Z,100714.59
2024-02-28T09:57:07.263Z,100724.41
2024-02-28T09:59:43.326Z,100719.59
2024-02-28T10:02:21.698Z,100720.81
2024-02-28T10:04:50.006Z,100720.56
2024-02-28T10:07:18.270Z,100717.72
2024-02-28T10:09:45.838Z,100720.75
2024-02-28T10:12:13.933Z,100722.97
2024-02-28T10:14:41.682Z,100724.56
2024-02-28T10:17:09.385Z,100723.38
2024-02-28T10:19:37.308Z,100717.75
2024-02-28T10:22:04.933Z,100729.94
2024-02-28T10:24:35.200Z,100731.72
2024-02-28T10:27:03.257Z,100728.69
2024-02-28T10:29:30.787Z,100727.94
2024-02-28T10:31:58.391Z,100728.47
2024-02-28T10:34:26.373Z,100733.06
2024-02-28T10:36:54.213Z,100724.53
2024-02-28T10:39:23.160Z,100725.25
2024-02-28T10:41:51.938Z,100722.91
2024-02-28T10:44:19.674Z,100733.75
2024-02-28T10:46:50.763Z,100722.47
2024-02-28T10:49:18.873Z,100728.63
2024-02-28T10:51:50.784Z,100725.66
2024-02-28T10:54:22.193Z,100729.06
2024-02-28T10:56:50.606Z,100730.09
2024-02-28T10:59:18.433Z,100729.41
2024-02-28T11:01:46.729Z,100727.38
2024-02-28T11:04:17.223Z,100722.53
2024-02-28T11:07:01.620Z,100725.53
2024-02-28T11:09:34.297Z,100715.75
2024-02-28T11:12:07.875Z,100713.59
2024-02-28T11:14:37.927Z,100709.69
2024-02-28T11:17:06.944Z,100717.94
2024-02-28T11:19:36.000Z,100719.00
2024-02-28T11:22:06.795Z,100717.84
2024-02-28T11:24:37.518Z,100715.13
2024-02-28T11:27:07.841Z,100719.03
2024-02-28T11:29:35.931Z,100714.91
2024-02-28T11:32:03.759Z,100710.66
2024-02-28T11:34:31.534Z,100707.87
2024-02-28T11:37:00.300Z,100710.16
2024-02-28T11:39:28.465Z,100714.13
2024-02-28T11:41:56.722Z,100711.44
2024-02-28T11:44:24.620Z,100703.41
2024-02-28T11:46:52.137Z,100706.12
2024-02-28T11:49:19.920Z,100706.81
2024-02-28T11:51:48.198Z,100702.13
2024-02-28T11:54:15.743Z,100698.41
2024-02-28T11:56:43.425Z,100700.38
2024-02-28T11:59:12.822Z,100698.97
2024-02-28T12:01:43.331Z,100692.72
2024-02-28T12:04:11.947Z,100695.69
2024-02-28T12:06:40.487Z,100694.75
2024-02-28T12:09:14.570Z,100688.88
2024-02-28T12:11:47.483Z,100689.91
2024-02-28T12:14:15.338Z,100692.28
2024-02-28T12:16:43.507Z,100684.37
2024-02-28T12:19:12.627Z,100693.94
2024-02-28T12:21:41.113Z,100682.34
2024-02-28T12:24:12.451Z,100691.16
2024-02-28T12:26:40.631Z,100678.91
2024-02-28T12:29:08.786Z,100682.94
2024-02-28T12:31:36.386Z,100685.53
2024-02-28T12:34:06.819Z,100668.78
2024-02-28T12:36:35.592Z,100682.00
2024-02-28T12:39:03.706Z,100692.19
2024-02-28T12:41:31.512Z,100678.69
2024-02-28T12:43:58.990Z,100684.00
2024-02-28T12:46:26.743Z,100675.13
2024-02-28T12:48:54.556Z,100672.31
2024-02-28T12:51:37.949Z,100674.41
2024-02-28T12:54:06.132Z,100661.19
2024-02-28T12:56:34.383Z,100669.84
2024-02-28T12:59:01.958Z,100666.78
2024-02-28T13:01:30.475Z,100671.47
2024-02-28T13:03:58.452Z,100673.91
2024-02-28T13:06:26.145Z,100669.25
2024-02-28T13:08:54.995Z,100664.13
2024-02-28T13:11:24.077Z,100661.34
2024-02-28T13:13:52.934Z,100667.22
2024-02-28T13:16:22.762Z,100666.28
2024-02-28T13:18:50.249Z,100670.38
2024-02-28T13:21:17.908Z,100664.13
2024-02-28T13:23:45.717Z,100661.06
2024-02-28T13:26:19.584Z,100660.53
2024-02-28T13:28:50.502Z,100659.09
2024-02-28T13:31:20.036Z,100657.22
2024-02-28T13:33:49.831Z,100650.47
2024-02-28T13:36:17.760Z,100651.41
2024-02-28T13:38:45.523Z,100658.38
2024-02-28T13:41:13.485Z,100655.47
2024-02-28T13:43:40.979Z,100656.69
2024-02-28T13:46:11.272Z,100657.72
2024-02-28T13:48:39.338Z,100651.34
2024-02-28T13:51:07.076Z,100652.97
2024-02-28T13:53:34.537Z,100651.34
2024-02-28T13:56:02.303Z,100656.09
2024-02-28T13:58:38.809Z,100654.91
2024-02-28T14:01:11.356Z,100654.28
2024-02-28T14:03:42.882Z,100648.41
2024-02-28T14:06:11.199Z,100644.78
2024-02-28T14:08:43.120Z,100642.19
2024-02-28T14:11:13.122Z,100638.06
2024-02-28T14:13:41.283Z,100643.94
2024-02-28T14:16:09.657Z,100637.50
2024-02-28T14:18:37.509Z,100636.31
2024-02-28T14:21:08.105Z,100643.34
2024-02-28T14:23:36.106Z,100643.50
2024-02-28T14:26:03.825Z,100636.63
2024-02-28T14:28:31.818Z,100641.00
2024-02-28T14:30:59.396Z,100638.59
2024-02-28T14:33:26.982Z,100638.00
2024-02-28T14:35:55.126Z,100636.78
2024-02-28T14:38:22.674Z,100646.13
2024-02-28T14:40:50.469Z,100642.34
2024-02-28T14:43:18.592Z,100647.19
2024-02-28T14:45:46.238Z,100641.72
2024-02-28T14:48:13.961Z,100650.16
2024-02-28T14:50:43.102Z,100643.38
2024-02-28T14:53:10.825Z,100643.03
2024-02-28T14:55:38.517Z,100639.75
2024-02-28T14:58:06.395Z,100639.25
2024-02-28T15:00:34.451Z,100640.69
2024-02-28T15:03:02.305Z,100637.66
2024-02-28T15:05:30.225Z,100643.31
2024-02-28T15:07:57.950Z,100642.00
2024-02-28T15:10:25.672Z,100646.78
2024-02-28T15:12:53.486Z,100649.09
2024-02-28T15:15:21.005Z,100643.38
2024-02-28T15:17:48.533Z,100645.88
2024-02-28T15:20:16.440Z,100650.56
2024-02-28T15:22:46.693Z,100643.13
2024-02-28T15:25:14.314Z,100646.47
2024-02-28T15:27:42.222Z,100643.53
2024-02-28T15:30:10.555Z,100637.06
2024-02-28T15:32:41.048Z,100645.84
2024-02-28T15:35:09.471Z,100648.19
2024-02-28T15:37:36.955Z,100654.06
2024-02-28T15:40:07.922Z,100655.78
2024-02-28T15:42:36.366Z,100655.28
2024-02-28T15:45:04.108Z,100661.22
2024-02-28T15:47:33.971Z,100664.31
2024-02-28T15:50:04.108Z,100660.37
2024-02-28T15:52:31.932Z,100658.34
2024-02-28T15:54:59.605Z,100661.41
2024-02-28T15:57:27.622Z,100655.59
2024-02-28T15:59:56.616Z,100656.03
2024-02-28T16:02:24.369Z,100658.25
2024-02-28T16:04:52.150Z,100662.19
2024-02-28T16:07:19.718Z,100651.13
2024-02-28T16:09:47.351Z,100654.19
2024-02-28T16:12:15.572Z,100653.00
2024-02-28T16:14:43.377Z,100652.69
2024-02-28T16:17:16.581Z,100661.78
2024-02-28T16:19:44.399Z,100660.63
2024-02-28T16:22:11.923Z,100658.47
2024-02-28T16:24:39.645Z,100665.88
2024-02-28T16:27:07.476Z,100670.72
2024-02-28T16:29:35.071Z,100672.00
2024-02-28T16:32:02.764Z,100672.41
2024-02-28T16:34:30.543Z,100675.41
2024-02-28T16:36:58.908Z,100681.97
2024-02-28T16:39:26.584Z,100688.50
2024-02-28T16:41:54.393Z,100685.31
2024-02-28T16:44:21.836Z,100681.25
2024-02-28T16:46:50.162Z,100686.28
2024-02-28T16:49:18.290Z,100683.81
2024-02-28T16:51:46.460Z,100678.81
2024-02-28T16:54:14.146Z,100681.75
2024-02-28T16:56:42.169Z,100685.47
2024-02-28T16:59:11.043Z,100669.09
2024-02-28T17:01:38.720Z,100675.44
2024-02-28T17:04:06.659Z,100682.91
2024-02-28T17:06:34.195Z,100685.25
2024-02-28T17:09:01.649Z,100683.47
2024-02-28T17:11:29.476Z,100688.47
2024-02-28T17:13:57.056Z,100689.13
2024-02-28T17:16:24.574Z,100686.91
2024-02-28T17:18:52.335Z,100691.25
2024-02-28T17:21:20.507Z,100694.22
2024-02-28T17:23:47.952Z,100690.16
2024-02-28T17:26:15.828Z,100696.47
2024-02-28T17:28:43.438Z,100695.97
2024-02-28T17:31:11.259Z,100696.19
2024-02-28T17:33:39.164Z,100698.03
2024-02-28T17:36:07.383Z,100702.75
2024-02-28T17:38:36.560Z,100697.06
2024-02-28T17:41:06.821Z,100700.03
2024-02-28T17:43:34.602Z,100697.19
2024-02-28T17:46:02.786Z,100704.50
2024-02-28T17:48:31.041Z,100708.50
2024-02-28T17:50:59.314Z,100700.25
2024-02-28T17:53:27.651Z,100699.72
2024-02-28T17:55:55.503Z,100715.00
2024-02-28T17:58:23.146Z,100707.50
2024-02-28T18:00:50.803Z,100713.88
2024-02-28T18:03:19.098Z,100714.41
2024-02-28T18:05:47.346Z,100725.84
2024-02-28T18:08:14.848Z,100726.00
2024-02-28T18:10:43.316Z,100719.09
2024-02-28T18:13:14.125Z,100724.47
2024-02-28T18:15:41.906Z,100723.88
2024-02-28T18:18:09.484Z,100724.09
2024-02-28T18:20:37.055Z,100720.94
2024-02-28T18:23:05.300Z,100719.41
2024-02-28T18:25:33.089Z,100720.66
2024-02-28T18:28:03.444Z,100723.91
2024-02-28T18:30:32.022Z,100727.47
2024-02-28T18:33:01.094Z,100732.16
2024-02-28T18:35:32.312Z,100730.50
2024-02-28T18:38:00.994Z,100730.75
2024-02-28T18:40:28.685Z,100736.53
2024-02-28T18:42:56.326Z,100737.66
2024-02-28T18:45:27.617Z,100738.00
2024-02-28T18:47:55.348Z,100737.53
2024-02-28T18:50:25.310Z,100736.94
2024-02-28T18:52:53.064Z,100734.81
2024-02-28T18:55:26.210Z,100740.62
2024-02-28T18:57:55.420Z,100742.72
2024-02-28T19:00:24.021Z,100740.16
2024-02-28T19:02:51.996Z,100749.06
2024-02-28T19:05:20.342Z,100746.59
2024-02-28T19:07:48.227Z,100752.78
2024-02-28T19:10:16.113Z,100742.63
2024-02-28T19:12:46.554Z,100755.09
2024-02-28T19:15:15.465Z,100758.00
2024-02-28T19:17:43.200Z,100762.75
2024-02-28T19:20:11.595Z,100758.50
2024-02-28T19:22:39.265Z,100759.41
2024-02-28T19:25:07.374Z,100769.22
2024-02-28T19:27:35.627Z,100772.31
2024-02-28T19:30:06.206Z,100767.16
2024-02-28T19:32:34.051Z,100767.16
2024-02-28T19:35:01.976Z,100776.81
2024-02-28T19:37:29.532Z,100776.16
2024-02-28T19:40:08.527Z,100776.22
2024-02-28T19:42:37.621Z,100779.06
2024-02-28T19:45:06.632Z,100783.72
2024-02-28T19:47:34.519Z,100775.22
2024-02-28T19:50:03.148Z,100779.63
2024-02-28T19:52:30.837Z,100783.19
2024-02-28T19:54:58.745Z,100791.88
2024-02-28T19:57:26.909Z,100789.09
2024-02-28T19:59:54.626Z,100788.38
2024-02-28T20:02:23.872Z,100786.06
2024-02-28T20:04:51.794Z,100785.03
2024-02-28T20:07:19.596Z,100789.97
2024-02-28T20:09:47.288Z,100794.44
2024-02-28T20:12:16.323Z,100793.94
2024-02-28T20:14:44.757Z,100794.84
2024-02-28T20:17:15.220Z,100792.06
2024-02-28T20:19:44.728Z,100797.41
2024-02-28T20:22:12.729Z,100794.84
2024-02-28T20:24:40.574Z,100794.97
2024-02-28T20:27:08.459Z,100788.16
2024-02-28T20:29:36.374Z,100789.59
2024-02-28T20:32:05.715Z,100796.34
2024-02-28T20:34:35.354Z,100798.84
2024-02-28T20:37:04.463Z,100782.28
2024-02-28T20:39:32.119Z,100792.91
2024-02-28T20:42:00.095Z,100781.88
2024-02-28T20:44:30.173Z,100782.37
2024-02-28T20:46:58.007Z,100788.63
2024-02-28T20:49:25.909Z,100784.28
2024-02-28T20:51:53.517Z,100794.97
2024-02-28T20:54:21.026Z,100782.94
2024-02-28T20:56:50.369Z,100789.28
2024-02-28T20:59:19.471Z,100786.72
2024-02-28T21:01:47.094Z,100790.19
2024-02-28T21:04:15.181Z,100796.13
2024-02-28T21:06:42.721Z,100797.09
2024-02-28T21:09:10.148Z,100795.41
2024-02-28T21:11:37.925Z,100805.91
2024-02-28T21:14:05.847Z,100804.97
2024-02-28T21:16:33.307Z,100799.81
2024-02-28T21:19:01.088Z,100805.38
2024-02-28T21:21:29.456Z,100800.53
2024-02-28T21:23:56.900Z,100805.88
2024-02-28T21:26:24.831Z,100798.66
2024-02-28T21:28:52.296Z,100809.19
2024-02-28T21:31:20.257Z,100802.41
2024-02-28T21:33:48.095Z,100804.50
2024-02-28T21:36:15.576Z,100802.78
2024-02-28T21:38:43.293Z,100799.69
2024-02-28T21:41:11.512Z,100806.69
2024-02-28T21:43:39.004Z,100802.87
2024-02-28T21:46:06.689Z,100811.41
2024-02-28T21:48:34.603Z,100812.22
2024-02-28T21:51:02.301Z,100816.66
2024-02-28T21:53:29.770Z,100814.84
2024-02-28T21:55:57.482Z,100811.53
2024-02-28T21:58:24.895Z,100817.22
2024-02-28T22:00:52.508Z,100812.12
2024-02-28T22:03:20.519Z,100812.72
2024-02-28T22:05:48.448Z,100804.91
2024-02-28T22:08:15.878Z,100806.63
2024-02-28T22:10:43.723Z,100811.38
2024-02-28T22:13:11.348Z,100815.03
2024-02-28T22:15:38.924Z,100808.91
2024-02-28T22:18:06.796Z,100806.41
2024-02-28T22:20:34.218Z,100808.34
2024-02-28T22:23:01.660Z,100808.47
2024-02-28T22:25:29.436Z,100811.06
2024-02-28T22:27:56.882Z,100804.97
2024-02-28T22:30:26.436Z,100804.34
2024-02-28T22:32:54.465Z,100805.47
2024-02-28T22:35:22.007Z,100812.66
2024-02-28T22:37:49.398Z,100807.41
2024-02-28T22:40:17.366Z,100804.78
2024-02-28T22:42:44.927Z,100799.75
2024-02-28T22:45:12.504Z,100803.44
2024-02-28T22:47:40.181Z,100799.25
2024-02-28T22:50:08.332Z,100806.37
2024-02-28T22:52:35.777Z,100798.72
2024-02-28T22:55:05.880Z,100800.63
2024-02-28T22:57:33.573Z,100797.25
2024-02-28T23:00:01.157Z,100799.06
2024-02-28T23:02:29.021Z,100797.41
2024-02-28T23:04:57.123Z,100798.38
2024-02-28T23:07:24.621Z,100804.53
2024-02-28T23:09:52.544Z,100805.44
2024-02-28T23:12:19.986Z,100802.00
2024-02-28T23:14:48.089Z,100796.81
2024-02-28T23:17:16.612Z,100795.19
2024-02-28T23:19:45.676Z,100798.78
2024-02-28T23:22:13.857Z,100793.72
2024-02-28T23:24:41.700Z,100807.66
2024-02-28T23:27:09.394Z,100810.37
2024-02-28T23:29:36.899Z,100799.34
2024-02-28T23:32:04.861Z,100795.22
2024-02-28T23:34:32.284Z,100808.19
2024-02-28T23:36:59.891Z,100809.84
2024-02-28T23:39:27.713Z,100810.81
2024-02-28T23:41:55.294Z,100805.44
2024-02-28T23:44:22.771Z,100808.69
2024-02-28T23:46:52.813Z,100807.03
2024-02-28T23:49:20.330Z,100806.28
2024-02-28T23:51:47.788Z,100809.87
2024-02-28T23:54:16.030Z,100808.19
2024-02-28T23:56:43.505Z,100811.75
2024-02-28T23:59:11.192Z,100800.44
